Stanardsville, Virginia
Current Conditions -  °F | °C
As of 5:53 AM on Friday 24 Oct 2014 (Local Time) from KCHO Reporting Station
Clear Clear  
Wind Chill: 50°   Ceiling: Unl
Heat Index: 50°   Visibility: 10mi
Dew Point: 40°   Wind: 9mph
Humidity: 68%   Direction: 290°WNW
Pressure: 29.98"   Gusts: NA
Location:  38.3°N, 78.44°W
Report Text: KCHO 240953Z 29008KT 10SM CLR 10/04 A2998 RMK AO2 SLP149 T01000044
Loading
Personal Weather Stations






























Interactive Weather Map
Tropical Storm Tracking
New forecast layout! Learn more

10-Day Weather Forecast

Advertisements
Track Severe Weather on mobile